Time;durP1;ratioP1;P1;durP2;ratioP2;P2;SDS_P1;SDS_P2;PMS_P1;PMS_P2;Temp;Humidity;BMP_temperature;BMP_pressure;BME280_temperature;BME280_humidity;BME280_pressure;Samples;Min_cycle;Max_cycle;Signal;HPM_P1;HPM_P2
2021/07/03 00:01:40;;;;;;;14.58;11.73;;;;;;;21.86;78.82;100160.03;1853020;75;21086;-63
2021/07/03 00:04:08;;;;;;;14.98;10.95;;;;;;;21.87;78.70;100160.87;1851996;77;21144;-63
2021/07/03 00:06:37;;;;;;;21.75;12.00;;;;;;;21.88;78.63;100167.93;1875803;76;21043;-62
2021/07/03 00:09:06;;;;;;;16.27;10.43;;;;;;;21.86;78.69;100168.08;1875684;76;21112;-62
2021/07/03 00:11:35;;;;;;;15.70;10.05;;;;;;;21.83;78.86;100171.03;1875695;76;21055;-62
2021/07/03 00:14:04;;;;;;;13.65;9.70;;;;;;;21.81;78.67;100180.23;1875735;76;21070;-62
2021/07/03 00:16:34;;;;;;;14.35;9.70;;;;;;;21.79;78.51;100188.41;1875616;76;21635;-62
2021/07/03 00:19:02;;;;;;;14.70;9.45;;;;;;;21.75;78.36;100195.05;1875673;76;21530;-62
2021/07/03 00:21:32;;;;;;;17.45;9.58;;;;;;;21.72;78.32;100208.73;1875677;76;21074;-62
2021/07/03 00:24:01;;;;;;;16.32;10.78;;;;;;;21.66;78.50;100206.64;1875702;76;21051;-62
2021/07/03 00:26:30;;;;;;;15.20;10.58;;;;;;;21.61;79.21;100215.59;1875696;76;21531;-62
2021/07/03 00:28:58;;;;;;;17.37;10.90;;;;;;;21.55;79.40;100217.02;1875615;76;21062;-62
2021/07/03 00:31:27;;;;;;;16.80;10.58;;;;;;;21.51;79.32;100208.92;1875716;76;21047;-62
2021/07/03 00:33:57;;;;;;;13.48;9.75;;;;;;;21.48;79.17;100203.34;1875680;76;21144;-62
2021/07/03 00:36:26;;;;;;;19.85;10.82;;;;;;;21.46;78.88;100200.47;1875669;75;21594;-62
2021/07/03 00:38:55;;;;;;;14.87;11.03;;;;;;;21.44;78.86;100195.22;1875646;76;21101;-62
2021/07/03 00:41:24;;;;;;;20.20;10.93;;;;;;;21.43;78.98;100187.33;1875600;75;21145;-62
2021/07/03 00:43:53;;;;;;;17.57;10.38;;;;;;;21.41;79.41;100188.80;1875765;76;21067;-62
2021/07/03 00:46:22;;;;;;;15.65;10.93;;;;;;;21.42;79.30;100190.51;1875714;76;21580;-62
2021/07/03 00:48:51;;;;;;;15.28;9.93;;;;;;;21.42;79.06;100186.48;1875766;76;21067;-62
2021/07/03 00:51:21;;;;;;;15.85;10.35;;;;;;;21.44;79.04;100179.16;1875668;74;21063;-62
2021/07/03 00:53:50;;;;;;;16.45;9.50;;;;;;;21.44;79.18;100179.16;1818326;77;21161;-62
2021/07/03 00:56:19;;;;;;;18.23;10.45;;;;;;;21.46;79.02;100173.19;1817386;78;21564;-62
2021/07/03 00:58:48;;;;;;;17.00;11.38;;;;;;;21.47;78.82;100168.66;1817151;79;21580;-62
2021/07/03 01:01:18;;;;;;;14.93;9.38;;;;;;;21.44;79.03;100167.09;1817389;78;21494;-62
2021/07/03 01:03:47;;;;;;;19.70;11.18;;;;;;;21.41;78.89;100163.36;1817119;79;21093;-62
2021/07/03 01:06:16;;;;;;;15.68;11.50;;;;;;;21.39;79.00;100158.17;1817221;77;21087;-62
2021/07/03 01:08:45;;;;;;;18.15;10.82;;;;;;;21.34;79.19;100151.53;1817314;78;21162;-62
2021/07/03 01:11:17;;;;;;;20.00;11.97;;;;;;;21.31;79.06;100152.67;1817293;78;21078;-62
2021/07/03 01:13:46;;;;;;;19.02;11.60;;;;;;;21.29;79.40;100156.00;1818345;76;21110;-62
2021/07/03 01:16:16;;;;;;;16.70;9.40;;;;;;;21.27;79.64;100161.99;1818142;76;21170;-62
2021/07/03 01:18:45;;;;;;;15.38;9.83;;;;;;;21.24;79.39;100155.58;1817096;79;21510;-64
2021/07/03 01:21:17;;;;;;;16.42;10.53;;;;;;;21.14;79.50;100159.61;1817247;77;21544;-62
2021/07/03 01:23:46;;;;;;;17.82;10.25;;;;;;;21.08;79.53;100157.52;1817304;78;21134;-62
2021/07/03 01:26:15;;;;;;;21.68;11.12;;;;;;;21.05;79.57;100158.29;1817304;78;21165;-62
2021/07/03 01:28:44;;;;;;;19.37;11.35;;;;;;;21.01;79.83;100161.73;1817268;79;21563;-62
2021/07/03 01:31:14;;;;;;;19.52;12.78;;;;;;;21.00;79.99;100161.38;1817397;79;21059;-62
2021/07/03 01:33:44;;;;;;;22.10;12.60;;;;;;;21.00;80.09;100164.05;1817212;77;21157;-62
2021/07/03 01:36:13;;;;;;;24.23;14.15;;;;;;;21.01;80.10;100167.09;1817459;79;21494;-62
2021/07/03 01:38:43;;;;;;;24.95;15.93;;;;;;;21.02;79.90;100166.09;1817425;79;21075;-62
2021/07/03 01:41:13;;;;;;;24.15;14.83;;;;;;;21.04;79.53;100169.97;1817446;76;21123;-62
2021/07/03 01:43:53;;;;;;;20.88;14.60;;;;;;;21.04;79.69;100177.49;1817824;77;21581;-63
2021/07/03 01:46:22;;;;;;;18.82;12.13;;;;;;;21.01;79.89;100185.33;1817292;79;21047;-62
2021/07/03 01:48:52;;;;;;;20.75;13.10;;;;;;;20.99;79.90;100183.28;1817287;79;21079;-62
2021/07/03 01:51:28;;;;;;;21.10;13.45;;;;;;;20.99;79.92;100183.28;1818907;76;21111;-62
2021/07/03 01:53:57;;;;;;;23.38;14.73;;;;;;;20.98;80.11;100176.23;1871203;76;21149;-63
2021/07/03 01:56:26;;;;;;;29.20;15.90;;;;;;;21.00;80.27;100170.73;1888243;76;21074;-63
2021/07/03 01:58:55;;;;;;;22.45;12.73;;;;;;;21.03;80.38;100178.50;1888337;76;21116;-63
2021/07/03 02:01:31;;;;;;;22.30;12.68;;;;;;;21.03;80.35;100177.16;1874906;74;21065;-62
2021/07/03 02:04:00;;;;;;;18.90;12.07;;;;;;;21.04;80.47;100174.81;1888416;76;21155;-62
2021/07/03 02:06:36;;;;;;;21.65;12.65;;;;;;;21.05;80.53;100172.50;1889818;74;21175;-62
2021/07/03 02:09:06;;;;;;;25.50;13.45;;;;;;;21.09;80.60;100169.89;1888337;76;21078;-62
2021/07/03 02:11:37;;;;;;;16.55;12.10;;;;;;;21.17;80.89;100171.85;1888416;75;21195;-62
2021/07/03 02:14:08;;;;;;;22.55;12.60;;;;;;;21.25;80.83;100163.10;1889401;74;21120;-62
2021/07/03 02:16:38;;;;;;;18.55;11.53;;;;;;;21.32;80.63;100158.39;1889405;73;21081;-62
2021/07/03 02:19:09;;;;;;;16.60;10.32;;;;;;;21.40;80.54;100159.84;1888370;76;21108;-62
2021/07/03 02:21:39;;;;;;;17.27;10.85;;;;;;;21.49;80.36;100156.00;1888332;76;21141;-62
2021/07/03 02:24:10;;;;;;;17.35;10.63;;;;;;;21.57;80.18;100160.96;1888403;73;21077;-62
2021/07/03 02:26:40;;;;;;;14.73;9.78;;;;;;;21.66;80.01;100162.44;1888503;76;21050;-62
2021/07/03 02:29:10;;;;;;;17.65;9.48;;;;;;;21.75;79.87;100160.22;1888628;75;21046;-62
2021/07/03 02:31:39;;;;;;;13.28;10.00;;;;;;;21.84;79.69;100167.38;1888489;75;21426;-62
2021/07/03 02:34:08;;;;;;;16.10;10.55;;;;;;;21.95;79.42;100164.52;1888198;76;21046;-62
2021/07/03 02:36:38;;;;;;;16.97;10.48;;;;;;;22.07;79.29;100160.30;1888434;76;21062;-62
2021/07/03 02:39:08;;;;;;;22.32;10.65;;;;;;;22.20;79.13;100160.78;1888448;75;21136;-62
2021/07/03 02:41:38;;;;;;;20.48;10.30;;;;;;;22.31;78.93;100161.95;1889347;74;21084;-62
2021/07/03 02:44:09;;;;;;;13.70;10.40;;;;;;;22.45;78.71;100162.45;1888671;76;21047;-62
2021/07/03 02:46:38;;;;;;;15.45;10.32;;;;;;;22.57;78.38;100159.88;1888239;75;21074;-62
2021/07/03 02:49:08;;;;;;;15.35;9.78;;;;;;;22.70;77.96;100164.88;1888381;76;21042;-62
2021/07/03 02:51:37;;;;;;;16.70;10.48;;;;;;;22.86;77.48;100156.16;1888508;76;21081;-62
2021/07/03 02:54:06;;;;;;;17.92;10.08;;;;;;;22.99;76.99;100161.97;1888347;76;21378;-62
2021/07/03 02:56:35;;;;;;;15.55;8.95;;;;;;;23.12;76.92;100159.75;1888302;76;21078;-62
2021/07/03 02:59:05;;;;;;;19.35;12.58;;;;;;;23.26;76.68;100164.25;1888329;75;21514;-62
2021/07/03 03:01:34;;;;;;;18.77;12.07;;;;;;;23.37;76.56;100159.96;1888510;76;21516;-62
2021/07/03 03:04:04;;;;;;;16.65;11.12;;;;;;;23.56;76.46;100160.75;1888378;74;21465;-62
2021/07/03 03:06:34;;;;;;;16.65;10.82;;;;;;;23.71;76.17;100155.13;1888532;76;21058;-61
2021/07/03 03:09:04;;;;;;;12.85;10.55;;;;;;;23.89;75.99;100159.95;1888404;76;21140;-61
2021/07/03 03:11:32;;;;;;;20.90;12.78;;;;;;;24.10;75.58;100165.42;1888245;74;21157;-62
2021/07/03 03:14:02;;;;;;;17.62;12.68;;;;;;;24.27;75.13;100165.84;1888369;76;21465;-61
2021/07/03 03:16:31;;;;;;;19.70;12.35;;;;;;;24.42;74.33;100163.84;1888422;75;21159;-62
2021/07/03 03:19:02;;;;;;;17.52;10.88;;;;;;;24.57;74.03;100167.64;1888853;74;21069;-62
2021/07/03 03:21:31;;;;;;;15.65;11.57;;;;;;;24.71;73.78;100166.13;1888594;76;21041;-61
2021/07/03 03:24:01;;;;;;;14.55;9.43;;;;;;;24.87;73.57;100172.05;1888261;76;21046;-62
2021/07/03 03:26:32;;;;;;;15.28;9.33;;;;;;;25.05;73.22;100175.44;1888589;74;21127;-61
2021/07/03 03:29:01;;;;;;;15.70;8.65;;;;;;;25.23;73.07;100176.66;1888330;76;21453;-62
2021/07/03 03:31:30;;;;;;;15.10;9.03;;;;;;;25.40;72.80;100174.78;1888360;75;21042;-61
2021/07/03 03:33:59;;;;;;;14.60;9.40;;;;;;;25.51;72.11;100168.69;1888339;76;21074;-62
2021/07/03 03:36:28;;;;;;;13.38;9.78;;;;;;;25.60;71.89;100165.83;1888206;76;21598;-62
2021/07/03 03:38:57;;;;;;;12.88;8.95;;;;;;;25.73;71.70;100169.34;1888337;75;21093;-61
2021/07/03 03:41:26;;;;;;;18.10;9.18;;;;;;;25.84;71.34;100172.66;1917859;74;21446;-61
2021/07/03 03:43:57;;;;;;;15.40;9.85;;;;;;;25.93;71.02;100166.26;1888472;76;21498;-61
2021/07/03 03:46:27;;;;;;;12.07;8.55;;;;;;;26.05;70.94;100163.52;1888557;74;21112;-61
2021/07/03 03:48:56;;;;;;;15.00;8.13;;;;;;;26.23;70.85;100163.77;1888343;75;21093;-61
2021/07/03 03:51:26;;;;;;;13.13;7.78;;;;;;;26.38;70.47;100168.77;1888427;75;21521;-61
2021/07/03 03:53:54;;;;;;;11.08;7.58;;;;;;;26.49;69.93;100175.12;1888368;76;21706;-61
2021/07/03 03:56:24;;;;;;;14.13;7.97;;;;;;;26.57;69.84;100176.41;1888364;76;21132;-61
2021/07/03 03:58:53;;;;;;;9.85;7.50;;;;;;;26.69;69.59;100172.84;1888340;76;21461;-61
2021/07/03 04:01:24;;;;;;;10.05;7.67;;;;;;;26.80;69.36;100175.64;1888380;74;21050;-61
2021/07/03 04:03:53;;;;;;;12.25;8.30;;;;;;;26.87;69.13;100164.45;1888298;76;21536;-62
2021/07/03 04:06:22;;;;;;;12.33;9.05;;;;;;;26.93;69.18;100156.97;1888467;75;21093;-61
2021/07/03 04:08:51;;;;;;;11.48;8.83;;;;;;;27.08;68.75;100161.58;1888484;75;21076;-61
2021/07/03 04:11:20;;;;;;;13.68;9.58;;;;;;;27.23;68.58;100163.80;1888274;76;21062;-61
2021/07/03 04:13:49;;;;;;;12.47;8.45;;;;;;;27.38;67.94;100163.87;1888325;75;21054;-61
2021/07/03 04:19:07;;;;;;;12.35;8.75;;;;;;;27.53;67.04;100172.00;1921053;75;21042;-61
2021/07/03 04:21:36;;;;;;;13.55;8.35;;;;;;;27.61;66.90;100167.88;1921082;75;21108;-61
2021/07/03 04:24:05;;;;;;;12.07;9.25;;;;;;;27.78;66.89;100171.73;1921111;75;21046;-61
2021/07/03 04:26:34;;;;;;;10.78;8.60;;;;;;;27.90;66.15;100162.16;1921055;75;21034;-62
2021/07/03 04:29:02;;;;;;;9.98;8.93;;;;;;;28.01;65.84;100167.09;1921110;75;21027;-61
2021/07/03 04:31:31;;;;;;;10.25;8.43;;;;;;;28.20;65.25;100171.60;1921095;75;21163;-61
2021/07/03 04:34:00;;;;;;;13.85;9.43;;;;;;;28.36;65.07;100172.74;1921079;75;21108;-61
2021/07/03 04:36:29;;;;;;;12.45;8.70;;;;;;;28.50;64.47;100169.17;1921099;75;21011;-61
2021/07/03 04:38:58;;;;;;;11.03;8.73;;;;;;;28.55;64.10;100169.13;1921004;75;21026;-62
2021/07/03 04:41:28;;;;;;;12.63;10.15;;;;;;;28.65;63.92;100166.97;1921053;75;21058;-61
2021/07/03 04:43:57;;;;;;;16.60;10.28;;;;;;;28.67;63.78;100159.48;1921236;75;21027;-61
2021/07/03 04:46:26;;;;;;;12.85;9.35;;;;;;;28.81;63.82;100165.36;1921071;75;21039;-61
2021/07/03 04:48:55;;;;;;;12.05;9.43;;;;;;;28.98;63.23;100162.40;1921049;75;21046;-61
2021/07/03 04:51:23;;;;;;;11.53;9.65;;;;;;;29.10;63.09;100168.12;1921320;75;21086;-61
2021/07/03 04:53:52;;;;;;;14.40;9.15;;;;;;;29.26;62.94;100159.22;1921009;75;21121;-61
2021/07/03 04:56:21;;;;;;;17.20;9.88;;;;;;;29.41;62.91;100165.06;1921275;75;21180;-61
2021/07/03 04:58:50;;;;;;;12.30;9.10;;;;;;;29.59;62.86;100162.69;1921115;75;21039;-61
2021/07/03 05:01:19;;;;;;;10.38;8.15;;;;;;;29.78;62.00;100152.20;1921165;75;21496;-61
2021/07/03 05:03:47;;;;;;;11.08;8.98;;;;;;;29.86;61.15;100152.02;1921225;75;21070;-61
2021/07/03 05:06:16;;;;;;;12.20;8.15;;;;;;;29.99;60.76;100142.61;1921068;75;21059;-61
2021/07/03 05:08:45;;;;;;;13.03;9.15;;;;;;;30.06;59.93;100143.15;1921136;75;21124;-62
2021/07/03 05:11:14;;;;;;;11.93;8.88;;;;;;;29.99;59.75;100130.39;1921393;75;21564;-61
2021/07/03 05:13:43;;;;;;;11.33;9.03;;;;;;;30.10;60.26;100129.48;1921148;75;21477;-61
2021/07/03 05:16:12;;;;;;;9.85;8.70;;;;;;;30.35;59.92;100121.14;1921169;75;21559;-61
2021/07/03 05:18:41;;;;;;;14.30;8.53;;;;;;;30.54;59.80;100124.11;1920967;75;21206;-62
2021/07/03 05:21:10;;;;;;;9.90;8.80;;;;;;;30.75;59.49;100123.12;1919446;75;21059;-61
2021/07/03 05:23:39;;;;;;;10.13;8.63;;;;;;;30.95;58.26;100120.42;1908453;75;21157;-61
2021/07/03 05:26:07;;;;;;;14.28;8.45;;;;;;;31.17;58.00;100116.46;1908479;75;21039;-61
2021/07/03 05:28:36;;;;;;;10.65;7.97;;;;;;;31.44;57.43;100120.49;1908430;75;21051;-61
2021/07/03 05:31:05;;;;;;;12.55;8.33;;;;;;;31.64;56.98;100116.41;1908429;75;21163;-65
2021/07/03 05:33:34;;;;;;;14.25;8.90;;;;;;;31.87;56.95;100120.02;1908611;75;21184;-61
2021/07/03 05:36:02;;;;;;;9.93;8.30;;;;;;;32.13;55.50;100115.54;1908456;75;21015;-61
2021/07/03 05:38:39;;;;;;;10.20;8.55;;;;;;;32.24;55.03;100112.63;1908445;75;21532;-61
2021/07/03 05:41:01;;;;;;;10.60;8.48;;;;;;;32.28;55.08;100110.63;1906537;75;21160;-61
2021/07/03 05:43:30;;;;;;;13.55;7.95;;;;;;;32.40;54.41;100105.84;1908600;75;21051;-61
2021/07/03 05:45:59;;;;;;;12.05;8.50;;;;;;;32.60;54.37;100108.48;1908413;75;21146;-62
2021/07/03 05:48:28;;;;;;;9.05;8.08;;;;;;;32.77;54.03;100108.23;1908478;75;21055;-62
2021/07/03 05:50:57;;;;;;;8.95;7.70;;;;;;;32.90;53.87;100116.84;1908607;75;21054;-61
2021/07/03 05:53:25;;;;;;;11.75;8.35;;;;;;;33.16;53.20;100114.98;1908475;75;21043;-61
2021/07/03 05:55:55;;;;;;;12.63;8.40;;;;;;;33.36;53.12;100110.16;1908408;75;21078;-61
2021/07/03 05:58:24;;;;;;;12.95;8.10;;;;;;;33.58;51.45;100113.29;1908324;75;21136;-61
2021/07/03 06:00:53;;;;;;;11.97;8.10;;;;;;;33.58;51.45;100113.29;1908431;75;21047;-61
2021/07/03 06:03:22;;;;;;;12.63;8.05;;;;;;;33.31;51.16;100108.66;1908431;75;21338;-61
2021/07/03 06:05:51;;;;;;;12.25;7.90;;;;;;;33.35;51.63;100111.23;1908442;75;21489;-62
2021/07/03 06:08:20;;;;;;;15.68;9.05;;;;;;;33.36;51.47;100110.16;1908516;75;21509;-61
2021/07/03 06:10:49;;;;;;;13.55;9.00;;;;;;;33.38;51.05;100102.58;1908329;75;21067;-62
2021/07/03 06:13:17;;;;;;;11.22;8.30;;;;;;;33.52;51.16;100098.37;1908444;75;21129;-62
2021/07/03 06:15:46;;;;;;;11.22;8.28;;;;;;;33.57;50.05;100076.16;1908428;75;21059;-61
2021/07/03 06:18:15;;;;;;;9.58;8.15;;;;;;;33.73;50.46;100102.02;1908488;75;21109;-61
2021/07/03 06:20:44;;;;;;;12.58;8.35;;;;;;;34.15;50.17;100099.40;1909062;75;21136;-62
2021/07/03 06:23:13;;;;;;;9.33;7.37;;;;;;;34.42;49.55;100101.26;1908970;75;21113;-63
2021/07/03 06:25:41;;;;;;;11.93;7.75;;;;;;;34.70;48.54;100093.52;1909033;75;21067;-61
2021/07/03 06:28:10;;;;;;;12.20;8.00;;;;;;;34.87;48.01;100098.59;1909078;75;21091;-62
2021/07/03 06:30:40;;;;;;;13.45;7.78;;;;;;;34.97;47.59;100108.42;1909106;75;21051;-61
2021/07/03 06:33:09;;;;;;;12.63;8.43;;;;;;;35.07;46.95;100105.09;1909242;75;21548;-61
2021/07/03 06:35:38;;;;;;;11.78;7.85;;;;;;;35.20;47.14;100102.69;1909284;75;21051;-62
2021/07/03 06:38:08;;;;;;;12.58;7.80;;;;;;;35.46;47.22;100104.64;1910828;75;21051;-61
2021/07/03 06:40:56;;;;;;;9.10;7.92;;;;;;;35.73;45.96;100098.14;1925117;74;21126;-61
2021/07/03 06:43:24;;;;;;;13.08;7.28;;;;;;;35.73;45.56;100101.70;1925244;74;21058;-61
2021/07/03 06:45:55;;;;;;;8.93;6.72;;;;;;;35.89;45.28;100108.34;1925214;74;21054;-61
2021/07/03 06:48:24;;;;;;;13.72;8.65;;;;;;;36.10;44.93;100115.05;1925162;74;21475;-61
2021/07/03 06:50:53;;;;;;;11.97;8.15;;;;;;;36.32;44.89;100116.60;1925242;74;21099;-61
2021/07/03 06:53:22;;;;;;;10.45;7.47;;;;;;;36.56;43.68;100111.52;1925094;74;21006;-61
2021/07/03 06:55:50;;;;;;;9.15;7.62;;;;;;;36.31;43.73;100119.58;1925234;74;21108;-61
2021/07/03 06:58:19;;;;;;;14.38;7.83;;;;;;;36.20;44.01;100125.41;1925248;73;21124;-61
2021/07/03 07:00:47;;;;;;;11.53;7.78;;;;;;;36.29;43.51;100128.59;1925344;74;21533;-61
2021/07/03 07:03:16;;;;;;;10.05;8.08;;;;;;;36.27;43.71;100136.23;1925289;74;21019;-61
2021/07/03 07:05:45;;;;;;;10.03;7.65;;;;;;;36.03;44.11;100140.39;1925205;74;21136;-61
2021/07/03 07:08:14;;;;;;;14.78;7.95;;;;;;;36.22;44.11;100139.69;1925202;73;21084;-61
2021/07/03 07:10:42;;;;;;;9.35;7.53;;;;;;;36.27;43.55;100126.64;1925231;74;21141;-61
2021/07/03 07:13:12;;;;;;;11.95;7.90;;;;;;;36.13;43.90;100133.75;1925304;74;21051;-61
2021/07/03 07:15:41;;;;;;;11.45;7.62;;;;;;;36.12;44.38;100129.34;1925192;74;21036;-61
2021/07/03 07:18:10;;;;;;;12.75;7.97;;;;;;;35.57;44.48;100132.53;1925247;74;21130;-60
2021/07/03 07:20:38;;;;;;;15.28;7.75;;;;;;;34.77;45.86;100136.09;1925173;74;21450;-61
2021/07/03 07:23:07;;;;;;;10.98;8.63;;;;;;;34.71;46.43;100134.81;1925209;74;21060;-60
2021/07/03 07:25:36;;;;;;;9.25;7.72;;;;;;;35.09;45.33;100128.11;1925247;74;21056;-60
2021/07/03 07:28:05;;;;;;;11.03;7.90;;;;;;;35.18;45.78;100143.11;1925156;73;21483;-61
2021/07/03 07:30:34;;;;;;;11.10;7.72;;;;;;;35.42;45.44;100140.41;1925220;74;21502;-60
2021/07/03 07:33:04;;;;;;;11.88;8.20;;;;;;;35.63;44.49;100142.52;1925220;73;21052;-61
2021/07/03 07:35:33;;;;;;;9.00;7.85;;;;;;;35.59;44.68;100135.86;1925225;74;21059;-60
2021/07/03 07:38:02;;;;;;;9.53;7.40;;;;;;;35.37;44.83;100152.88;1925230;74;21533;-61
2021/07/03 07:40:30;;;;;;;9.40;6.65;;;;;;;35.28;45.87;100135.70;1922901;74;21186;-61
2021/07/03 07:42:59;;;;;;;11.90;7.67;;;;;;;35.28;45.87;100135.70;1919292;75;21123;-61
2021/07/03 07:45:29;;;;;;;16.12;7.95;;;;;;;35.35;45.20;100146.81;1908963;73;21135;-60
2021/07/03 07:47:58;;;;;;;9.15;7.00;;;;;;;35.57;44.64;100142.12;1909029;75;21038;-60
2021/07/03 07:50:26;;;;;;;13.48;7.45;;;;;;;35.61;44.63;100133.71;1908961;75;21049;-60
2021/07/03 07:52:55;;;;;;;12.88;7.60;;;;;;;35.81;44.60;100138.01;1908849;74;21022;-62
2021/07/03 07:55:24;;;;;;;10.68;7.40;;;;;;;36.03;44.18;100132.16;1908972;75;20998;-61
2021/07/03 07:57:53;;;;;;;11.45;7.30;;;;;;;36.28;43.98;100135.99;1908935;75;21025;-61
2021/07/03 08:00:22;;;;;;;12.03;7.72;;;;;;;36.64;43.40;100130.33;1908941;75;21081;-61
2021/07/03 08:02:51;;;;;;;8.15;7.35;;;;;;;37.01;42.60;100132.08;1908923;74;21546;-61
2021/07/03 08:05:20;;;;;;;12.33;7.17;;;;;;;37.25;42.40;100140.98;1908839;74;21065;-62
2021/07/03 08:07:49;;;;;;;10.08;7.42;;;;;;;37.24;41.39;100146.20;1909079;75;21105;-61
2021/07/03 08:10:18;;;;;;;9.40;7.30;;;;;;;37.08;41.34;100140.15;1909086;75;21026;-61
2021/07/03 08:12:48;;;;;;;10.08;7.25;;;;;;;37.15;41.96;100137.25;1908946;75;21058;-60
2021/07/03 08:15:17;;;;;;;13.05;7.20;;;;;;;37.42;41.42;100142.33;1908961;75;21053;-61
2021/07/03 08:17:45;;;;;;;11.12;8.23;;;;;;;37.53;40.39;100137.81;1908935;74;21018;-62
2021/07/03 08:20:17;;;;;;;10.80;7.40;;;;;;;37.52;40.24;100130.68;1908860;75;21058;-61
2021/07/03 08:22:51;;;;;;;11.15;8.23;;;;;;;37.49;40.46;100131.17;1909089;75;21538;-61
2021/07/03 08:25:23;;;;;;;11.33;7.78;;;;;;;37.40;40.60;100121.70;1908928;74;21037;-61
2021/07/03 08:27:52;;;;;;;;;;;;;;;37.21;40.40;100119.25;1911868;75;21146;-60
2021/07/03 08:30:21;;;;;;;10.45;8.23;;;;;;;37.00;40.69;100119.97;1908913;75;20381;-61
2021/07/03 08:32:51;;;;;;;12.37;8.03;;;;;;;37.00;40.85;100113.11;1909027;75;21026;-61
2021/07/03 08:35:20;;;;;;;8.88;7.50;;;;;;;36.87;41.14;100114.27;1909018;75;21103;-61
2021/07/03 08:37:49;;;;;;;12.05;8.15;;;;;;;37.01;41.29;100116.98;1909047;75;21073;-61
2021/07/03 08:40:19;;;;;;;9.08;7.85;;;;;;;37.20;41.28;100117.56;1913906;74;21503;-61
2021/07/03 08:42:48;;;;;;;12.23;8.70;;;;;;;37.33;41.16;100117.76;1929967;74;21484;-61
2021/07/03 08:45:17;;;;;;;12.82;8.15;;;;;;;37.36;40.15;100112.32;1924927;74;21418;-60
2021/07/03 08:47:47;;;;;;;11.48;8.18;;;;;;;37.00;41.11;100115.86;1924871;74;21095;-61
2021/07/03 08:50:19;;;;;;;11.08;7.58;;;;;;;37.02;41.01;100115.06;1924849;74;21472;-61
2021/07/03 08:52:48;;;;;;;11.30;7.62;;;;;;;37.01;40.95;100113.41;1925148;73;21467;-60
2021/07/03 08:55:24;;;;;;;11.93;8.00;;;;;;;37.07;40.72;100115.14;1924862;74;21029;-62
2021/07/03 08:57:55;;;;;;;12.30;7.80;;;;;;;36.92;40.67;100119.03;1924947;74;21534;-61
2021/07/03 09:00:33;;;;;;;11.80;6.95;;;;;;;36.84;41.14;100116.98;1924963;74;21033;-61
2021/07/03 09:03:03;;;;;;;14.18;7.97;;;;;;;36.93;40.88;100102.33;1925212;74;21068;-60
2021/07/03 09:05:33;;;;;;;12.40;7.25;;;;;;;36.89;40.44;100116.26;1920331;74;21100;-60
2021/07/03 09:08:08;;;;;;;7.90;7.00;;;;;;;36.70;41.08;100108.23;1924747;74;21592;-61
2021/07/03 09:10:38;;;;;;;11.75;7.62;;;;;;;36.91;40.88;100119.58;1924984;74;21064;-61
2021/07/03 09:13:08;;;;;;;11.05;6.75;;;;;;;36.77;40.16;100103.98;1924860;74;21554;-61
2021/07/03 09:15:42;;;;;;;9.73;7.37;;;;;;;36.41;41.57;100100.59;1925104;74;21476;-60
2021/07/03 09:18:20;;;;;;;10.82;6.80;;;;;;;36.39;41.27;100107.38;1924829;74;21103;-60
2021/07/03 09:20:51;;;;;;;13.88;7.17;;;;;;;36.50;41.43;100108.71;1923727;74;21064;-61
2021/07/03 09:23:23;;;;;;;10.30;6.83;;;;;;;36.85;40.74;100100.84;1924966;74;21512;-61
2021/07/03 09:25:57;;;;;;;11.65;7.00;;;;;;;37.08;40.24;100100.36;1924997;74;21033;-61
2021/07/03 09:28:36;;;;;;;7.30;6.40;;;;;;;36.93;40.09;100096.84;1924351;74;21483;-61
2021/07/03 09:31:06;;;;;;;10.28;7.03;;;;;;;37.17;40.33;100097.52;1924770;74;21033;-61
2021/07/03 09:33:38;;;;;;;9.80;7.25;;;;;;;37.23;39.54;100099.23;1924845;73;21557;-61
2021/07/03 09:36:12;;;;;;;9.23;6.40;;;;;;;36.89;39.65;100104.73;1925021;74;21126;-61
2021/07/03 09:38:46;;;;;;;10.50;7.87;;;;;;;36.92;40.10;100091.59;1924941;74;21083;-61
2021/07/03 09:41:23;;;;;;;11.45;7.28;;;;;;;36.62;39.57;100094.09;1930301;73;21166;-62
2021/07/03 09:43:54;;;;;;;9.08;7.05;;;;;;;36.51;40.26;100084.86;1947195;73;21032;-61
2021/07/03 09:46:29;;;;;;;10.45;6.60;;;;;;;36.55;40.67;100082.45;1947391;74;21061;-61
2021/07/03 09:49:02;;;;;;;11.12;6.50;;;;;;;36.50;40.39;100078.55;1947270;74;21052;-61
2021/07/03 09:51:33;;;;;;;10.80;7.00;;;;;;;36.22;41.14;100074.46;1947247;74;21005;-61
2021/07/03 09:54:03;;;;;;;11.60;7.17;;;;;;;36.14;41.22;100072.38;1945447;74;21111;-61
2021/07/03 09:56:33;;;;;;;8.30;6.12;;;;;;;36.04;41.75;100074.94;1947370;74;21815;-61
2021/07/03 09:59:01;;;;;;;9.85;6.60;;;;;;;36.04;41.75;100074.94;1947459;74;21102;-61
2021/07/03 10:01:30;;;;;;;12.35;7.40;;;;;;;36.11;41.63;100068.75;1947475;74;21028;-61
2021/07/03 10:04:02;;;;;;;10.55;6.83;;;;;;;36.18;40.59;100065.05;1947431;74;21024;-61
2021/07/03 10:06:34;;;;;;;11.18;7.08;;;;;;;36.10;40.78;100077.23;1947674;73;21083;-61
2021/07/03 10:09:05;;;;;;;12.03;5.83;;;;;;;35.90;41.31;100076.30;1947695;74;21128;-61
2021/07/03 10:11:40;;;;;;;11.00;6.10;;;;;;;35.58;42.03;100067.14;1947710;74;21090;-61
2021/07/03 10:14:10;;;;;;;6.80;5.80;;;;;;;35.36;42.00;100110.73;1947574;74;21068;-61
2021/07/03 10:16:38;;;;;;;8.75;6.72;;;;;;;35.02;42.61;100055.73;1947359;74;21447;-62
2021/07/03 10:19:16;;;;;;;8.93;6.20;;;;;;;34.95;43.12;100057.23;1947432;73;21095;-61
2021/07/03 10:21:46;;;;;;;9.40;6.03;;;;;;;34.95;43.12;100057.23;1947429;74;21025;-61
2021/07/03 10:24:24;;;;;;;10.38;6.55;;;;;;;34.74;43.81;100048.23;1947506;74;21036;-61
2021/07/03 10:26:53;;;;;;;12.43;7.12;;;;;;;34.74;43.81;100048.23;1947444;74;21076;-61
2021/07/03 10:29:24;;;;;;;8.13;6.08;;;;;;;34.83;43.57;100066.50;1947362;74;21057;-61
2021/07/03 10:31:54;;;;;;;8.68;6.30;;;;;;;34.84;43.82;100065.41;1947463;74;21145;-61
2021/07/03 10:34:35;;;;;;;12.13;6.08;;;;;;;35.01;43.33;100060.92;1947546;74;21581;-61
2021/07/03 10:37:05;;;;;;;13.28;6.50;;;;;;;35.27;42.89;100053.33;1947456;74;21033;-61
2021/07/03 10:39:35;;;;;;;9.73;5.47;;;;;;;35.15;42.22;100048.64;1947389;74;21529;-64
2021/07/03 10:42:04;;;;;;;8.73;6.30;;;;;;;35.15;42.22;100048.64;1943792;73;21099;-61
2021/07/03 10:44:41;;;;;;;9.08;5.87;;;;;;;35.03;42.50;100046.98;1937929;74;21186;-61
2021/07/03 10:47:12;;;;;;;11.48;6.97;;;;;;;34.36;43.28;100031.16;1937541;74;21084;-61
2021/07/03 10:49:41;;;;;;;9.60;6.17;;;;;;;34.36;43.28;100031.16;1938161;74;21028;-61
2021/07/03 10:52:16;;;;;;;12.35;5.97;;;;;;;34.00;44.28;100023.87;1937748;74;21053;-61
2021/07/03 10:54:47;;;;;;;9.53;5.80;;;;;;;34.00;44.28;100023.87;1937837;74;21119;-61
2021/07/03 10:57:22;;;;;;;11.07;6.07;;;;;;;33.99;44.89;100029.88;1938137;74;21115;-61
2021/07/03 10:59:54;;;;;;;8.55;6.42;;;;;;;34.06;44.92;100020.20;1937849;74;21380;-61
2021/07/03 11:02:25;;;;;;;8.00;6.12;;;;;;;34.10;44.53;100029.59;1937476;74;21550;-62
2021/07/03 11:04:56;;;;;;;10.07;5.70;;;;;;;34.03;44.45;100042.00;1937746;74;21551;-61
2021/07/03 11:07:33;;;;;;;7.80;5.45;;;;;;;33.96;44.50;100033.60;1937921;74;21025;-61
2021/07/03 11:10:16;;;;;;;13.32;6.60;;;;;;;33.79;44.17;100039.70;1938019;74;21017;-61
2021/07/03 11:15:15;;;;;;;8.98;6.30;;;;;;;33.38;45.51;100041.19;1938088;74;21056;-61
2021/07/03 11:17:45;;;;;;;7.87;5.93;;;;;;;33.39;45.01;100037.41;1937702;74;21061;-61
2021/07/03 11:20:32;;;;;;;12.90;5.90;;;;;;;33.43;45.69;100035.89;1937889;74;21029;-62
2021/07/03 11:23:01;;;;;;;8.88;6.12;;;;;;;33.56;45.28;100031.34;1937318;74;21480;-61
2021/07/03 11:25:33;;;;;;;8.08;5.55;;;;;;;33.52;44.59;100015.14;1937803;74;21090;-61
2021/07/03 11:28:10;;;;;;;12.05;6.53;;;;;;;33.41;44.94;100020.82;1938023;74;21036;-61
2021/07/03 11:30:41;;;;;;;8.13;6.00;;;;;;;33.34;44.84;100007.24;1937735;74;21098;-64
2021/07/03 11:33:11;;;;;;;9.38;5.80;;;;;;;33.26;44.75;100014.38;1937829;74;20997;-61
2021/07/03 11:35:48;;;;;;;12.85;6.97;;;;;;;33.13;45.33;100002.27;1937718;74;21021;-62